sensor_id;sensor_type;location;lat;lon;timestamp;pressure;altitude;pressure_sealevel;temperature;humidity
74268;BME280;62638;51.362;12.472;2022-09-13T00:00:22;99921.13;;;12.26;93.36
74268;BME280;62638;51.362;12.472;2022-09-13T00:02:47;99918.25;;;12.20;93.89
74268;BME280;62638;51.362;12.472;2022-09-13T00:05:13;99921.25;;;12.17;93.81
74268;BME280;62638;51.362;12.472;2022-09-13T00:07:39;99917.38;;;12.11;93.87
74268;BME280;62638;51.362;12.472;2022-09-13T00:10:05;99914.66;;;12.03;94.33
74268;BME280;62638;51.362;12.472;2022-09-13T00:12:30;99909.00;;;12.14;94.42
74268;BME280;62638;51.362;12.472;2022-09-13T00:14:55;99907.66;;;12.10;94.36
74268;BME280;62638;51.362;12.472;2022-09-13T00:17:20;99906.44;;;12.05;94.44
74268;BME280;62638;51.362;12.472;2022-09-13T00:19:47;99895.03;;;12.03;94.39
74268;BME280;62638;51.362;12.472;2022-09-13T00:22:12;99887.00;;;12.03;94.39
74268;BME280;62638;51.362;12.472;2022-09-13T00:24:37;99885.97;;;12.04;94.49
74268;BME280;62638;51.362;12.472;2022-09-13T00:27:03;99875.41;;;12.02;94.64
74268;BME280;62638;51.362;12.472;2022-09-13T00:29:28;99878.94;;;12.03;94.47
74268;BME280;62638;51.362;12.472;2022-09-13T00:31:53;99869.84;;;12.04;93.94
74268;BME280;62638;51.362;12.472;2022-09-13T00:34:19;99874.19;;;11.97;94.72
74268;BME280;62638;51.362;12.472;2022-09-13T00:36:44;99871.53;;;11.97;94.79
74268;BME280;62638;51.362;12.472;2022-09-13T00:39:10;99866.31;;;11.95;94.73
74268;BME280;62638;51.362;12.472;2022-09-13T00:41:36;99873.53;;;11.95;95.00
74268;BME280;62638;51.362;12.472;2022-09-13T00:44:03;99868.69;;;11.98;94.70
74268;BME280;62638;51.362;12.472;2022-09-13T00:46:47;99854.09;;;12.01;94.53
74268;BME280;62638;51.362;12.472;2022-09-13T00:49:18;99857.28;;;12.04;94.01
74268;BME280;62638;51.362;12.472;2022-09-13T00:51:49;99856.63;;;12.02;94.28
74268;BME280;62638;51.362;12.472;2022-09-13T00:54:18;99856.25;;;11.97;94.24
74268;BME280;62638;51.362;12.472;2022-09-13T00:56:49;99850.56;;;12.00;94.66
74268;BME280;62638;51.362;12.472;2022-09-13T01:02:21;99845.38;;;11.99;94.43
74268;BME280;62638;51.362;12.472;2022-09-13T01:04:47;99844.88;;;12.03;93.99
74268;BME280;62638;51.362;12.472;2022-09-13T01:07:14;99838.19;;;12.15;93.70
74268;BME280;62638;51.362;12.472;2022-09-13T01:09:41;99842.06;;;12.21;93.15
74268;BME280;62638;51.362;12.472;2022-09-13T01:12:44;99843.06;;;12.12;93.48
74268;BME280;62638;51.362;12.472;2022-09-13T01:15:12;99838.97;;;12.00;94.13
74268;BME280;62638;51.362;12.472;2022-09-13T01:17:38;99833.59;;;12.00;94.19
74268;BME280;62638;51.362;12.472;2022-09-13T01:20:05;99835.81;;;12.12;93.74
74268;BME280;62638;51.362;12.472;2022-09-13T01:22:52;99830.16;;;12.15;93.94
74268;BME280;62638;51.362;12.472;2022-09-13T01:28:27;99828.94;;;12.10;93.75
74268;BME280;62638;51.362;12.472;2022-09-13T01:34:32;99833.66;;;12.08;94.27
74268;BME280;62638;51.362;12.472;2022-09-13T01:37:12;99827.25;;;12.09;94.31
74268;BME280;62638;51.362;12.472;2022-09-13T01:39:52;99827.94;;;12.03;94.36
74268;BME280;62638;51.362;12.472;2022-09-13T01:45:21;99823.06;;;12.06;95.06
74268;BME280;62638;51.362;12.472;2022-09-13T01:47:54;99828.94;;;12.02;94.75
74268;BME280;62638;51.362;12.472;2022-09-13T01:50:31;99821.22;;;11.99;95.00
74268;BME280;62638;51.362;12.472;2022-09-13T01:53:13;99812.97;;;12.00;95.24
74268;BME280;62638;51.362;12.472;2022-09-13T01:55:48;99808.78;;;11.98;95.35
74268;BME280;62638;51.362;12.472;2022-09-13T01:58:28;99810.78;;;11.96;95.44
74268;BME280;62638;51.362;12.472;2022-09-13T02:01:03;99808.47;;;12.01;95.95
74268;BME280;62638;51.362;12.472;2022-09-13T02:03:36;99803.66;;;12.20;95.35
74268;BME280;62638;51.362;12.472;2022-09-13T02:06:09;99806.97;;;12.14;95.12
74268;BME280;62638;51.362;12.472;2022-09-13T02:08:45;99805.28;;;12.13;95.34
74268;BME280;62638;51.362;12.472;2022-09-13T02:11:15;99801.47;;;12.32;95.39
74268;BME280;62638;51.362;12.472;2022-09-13T02:13:50;99797.59;;;12.43;94.67
74268;BME280;62638;51.362;12.472;2022-09-13T02:16:39;99797.44;;;12.44;94.18
74268;BME280;62638;51.362;12.472;2022-09-13T02:19:13;99789.41;;;12.52;93.87
74268;BME280;62638;51.362;12.472;2022-09-13T02:21:43;99794.44;;;12.63;93.23
74268;BME280;62638;51.362;12.472;2022-09-13T02:24:14;99792.06;;;12.68;92.88
74268;BME280;62638;51.362;12.472;2022-09-13T02:26:40;99791.22;;;12.60;93.56
74268;BME280;62638;51.362;12.472;2022-09-13T02:29:16;99785.56;;;12.63;93.41
74268;BME280;62638;51.362;12.472;2022-09-13T02:31:51;99783.88;;;12.54;93.27
74268;BME280;62638;51.362;12.472;2022-09-13T02:34:22;99780.19;;;12.55;93.93
74268;BME280;62638;51.362;12.472;2022-09-13T02:36:51;99775.66;;;12.55;93.63
74268;BME280;62638;51.362;12.472;2022-09-13T02:39:23;99768.75;;;12.53;93.98
74268;BME280;62638;51.362;12.472;2022-09-13T02:42:14;99759.84;;;12.52;93.31
74268;BME280;62638;51.362;12.472;2022-09-13T02:44:44;99757.00;;;12.54;93.65
74268;BME280;62638;51.362;12.472;2022-09-13T02:50:38;99745.59;;;12.36;94.92
74268;BME280;62638;51.362;12.472;2022-09-13T02:59:04;99742.56;;;12.31;94.98
74268;BME280;62638;51.362;12.472;2022-09-13T03:01:34;99745.44;;;12.29;94.93
74268;BME280;62638;51.362;12.472;2022-09-13T03:04:01;99750.78;;;12.37;94.71
74268;BME280;62638;51.362;12.472;2022-09-13T03:06:28;99751.94;;;12.35;95.04
74268;BME280;62638;51.362;12.472;2022-09-13T03:08:55;99753.78;;;12.34;94.96
74268;BME280;62638;51.362;12.472;2022-09-13T03:11:53;99746.06;;;11.99;95.02
74268;BME280;62638;51.362;12.472;2022-09-13T03:14:42;99745.34;;;11.72;96.28
74268;BME280;62638;51.362;12.472;2022-09-13T03:17:14;99751.06;;;11.86;96.91
74268;BME280;62638;51.362;12.472;2022-09-13T03:25:33;99745.53;;;11.95;97.15
74268;BME280;62638;51.362;12.472;2022-09-13T03:28:19;99737.31;;;11.89;96.86
74268;BME280;62638;51.362;12.472;2022-09-13T03:30:49;99736.81;;;11.93;96.82
74268;BME280;62638;51.362;12.472;2022-09-13T03:33:29;99734.63;;;11.89;96.65
74268;BME280;62638;51.362;12.472;2022-09-13T03:36:04;99727.28;;;12.07;96.42
74268;BME280;62638;51.362;12.472;2022-09-13T03:38:41;99740.72;;;12.31;95.79
74268;BME280;62638;51.362;12.472;2022-09-13T03:41:17;99745.25;;;12.31;95.29
74268;BME280;62638;51.362;12.472;2022-09-13T03:43:49;99731.16;;;12.28;95.79
74268;BME280;62638;51.362;12.472;2022-09-13T03:46:29;99733.00;;;12.36;95.27
74268;BME280;62638;51.362;12.472;2022-09-13T03:49:00;99732.66;;;12.55;94.58
74268;BME280;62638;51.362;12.472;2022-09-13T03:51:26;99726.25;;;12.64;93.60
74268;BME280;62638;51.362;12.472;2022-09-13T03:53:55;99719.84;;;12.82;92.84
74268;BME280;62638;51.362;12.472;2022-09-13T03:56:22;99726.75;;;12.84;92.60
74268;BME280;62638;51.362;12.472;2022-09-13T03:58:48;99727.22;;;12.88;92.34
74268;BME280;62638;51.362;12.472;2022-09-13T04:01:17;99725.22;;;12.90;92.51
74268;BME280;62638;51.362;12.472;2022-09-13T04:03:44;99725.91;;;12.84;92.50
74268;BME280;62638;51.362;12.472;2022-09-13T04:06:09;99717.34;;;12.80;93.09
74268;BME280;62638;51.362;12.472;2022-09-13T04:08:34;99721.91;;;12.71;93.29
74268;BME280;62638;51.362;12.472;2022-09-13T04:11:00;99722.22;;;12.68;93.48
74268;BME280;62638;51.362;12.472;2022-09-13T04:13:25;99718.34;;;12.79;92.86
74268;BME280;62638;51.362;12.472;2022-09-13T04:15:51;99722.53;;;12.73;92.90
74268;BME280;62638;51.362;12.472;2022-09-13T04:18:16;99717.00;;;12.75;93.00
74268;BME280;62638;51.362;12.472;2022-09-13T04:20:42;99720.91;;;12.72;93.03
74268;BME280;62638;51.362;12.472;2022-09-13T04:23:07;99721.91;;;12.71;92.73
74268;BME280;62638;51.362;12.472;2022-09-13T04:25:33;99729.97;;;12.71;93.09
74268;BME280;62638;51.362;12.472;2022-09-13T04:27:58;99724.38;;;12.73;93.00
74268;BME280;62638;51.362;12.472;2022-09-13T04:30:24;99730.81;;;12.64;93.30
74268;BME280;62638;51.362;12.472;2022-09-13T04:32:50;99721.91;;;12.71;92.97
74268;BME280;62638;51.362;12.472;2022-09-13T04:35:15;99725.25;;;12.65;93.24
74268;BME280;62638;51.362;12.472;2022-09-13T04:37:42;99731.63;;;12.72;92.93
74268;BME280;62638;51.362;12.472;2022-09-13T04:40:08;99724.06;;;12.84;92.48
74268;BME280;62638;51.362;12.472;2022-09-13T04:42:34;99728.59;;;12.76;93.09
74268;BME280;62638;51.362;12.472;2022-09-13T04:44:59;99725.56;;;12.79;93.14
74268;BME280;62638;51.362;12.472;2022-09-13T04:47:24;99725.06;;;12.83;92.17
74268;BME280;62638;51.362;12.472;2022-09-13T04:49:50;99727.06;;;12.89;92.16
74268;BME280;62638;51.362;12.472;2022-09-13T04:52:15;99723.03;;;12.93;92.11
74268;BME280;62638;51.362;12.472;2022-09-13T04:54:40;99720.81;;;12.97;91.47
74268;BME280;62638;51.362;12.472;2022-09-13T04:57:05;99715.81;;;12.94;91.78
74268;BME280;62638;51.362;12.472;2022-09-13T04:59:31;99717.47;;;12.87;92.36
74268;BME280;62638;51.362;12.472;2022-09-13T05:01:56;99715.16;;;12.84;92.39
74268;BME280;62638;51.362;12.472;2022-09-13T05:04:21;99711.97;;;12.80;92.85
74268;BME280;62638;51.362;12.472;2022-09-13T05:06:46;99710.78;;;12.74;92.87
74268;BME280;62638;51.362;12.472;2022-09-13T05:09:13;99702.09;;;12.72;93.60
74268;BME280;62638;51.362;12.472;2022-09-13T05:11:38;99713.66;;;12.81;93.19
74268;BME280;62638;51.362;12.472;2022-09-13T05:14:04;99704.41;;;12.76;92.81
74268;BME280;62638;51.362;12.472;2022-09-13T05:16:31;99704.75;;;12.81;93.46
74268;BME280;62638;51.362;12.472;2022-09-13T05:18:57;99710.78;;;12.83;93.47
74268;BME280;62638;51.362;12.472;2022-09-13T05:21:23;99708.91;;;12.91;93.08
74268;BME280;62638;51.362;12.472;2022-09-13T05:23:50;99700.31;;;12.96;92.92
74268;BME280;62638;51.362;12.472;2022-09-13T05:26:16;99684.00;;;13.13;91.95
74268;BME280;62638;51.362;12.472;2022-09-13T05:28:42;99686.09;;;13.34;91.64
74268;BME280;62638;51.362;12.472;2022-09-13T05:31:18;99696.13;;;13.48;90.93
74268;BME280;62638;51.362;12.472;2022-09-13T05:33:45;99698.97;;;13.78;89.75
74268;BME280;62638;51.362;12.472;2022-09-13T05:36:11;99700.94;;;14.06;88.76
74268;BME280;62638;51.362;12.472;2022-09-13T05:38:36;99701.91;;;14.14;87.90
74268;BME280;62638;51.362;12.472;2022-09-13T05:41:03;99710.59;;;14.46;85.91
74268;BME280;62638;51.362;12.472;2022-09-13T05:43:30;99709.41;;;14.49;85.88
74268;BME280;62638;51.362;12.472;2022-09-13T05:46:19;99708.66;;;14.55;85.36
74268;BME280;62638;51.362;12.472;2022-09-13T05:48:46;99713.44;;;14.82;84.52
74268;BME280;62638;51.362;12.472;2022-09-13T05:51:17;99708.81;;;14.91;84.24
74268;BME280;62638;51.362;12.472;2022-09-13T05:53:45;99710.41;;;15.00;83.07
74268;BME280;62638;51.362;12.472;2022-09-13T05:56:13;99708.53;;;15.15;82.86
74268;BME280;62638;51.362;12.472;2022-09-13T05:58:40;99706.69;;;15.30;82.44
74268;BME280;62638;51.362;12.472;2022-09-13T06:01:07;99702.47;;;15.28;82.52
74268;BME280;62638;51.362;12.472;2022-09-13T06:03:33;99699.03;;;15.34;82.35
74268;BME280;62638;51.362;12.472;2022-09-13T06:05:59;99694.03;;;15.31;82.29
74268;BME280;62638;51.362;12.472;2022-09-13T06:08:25;99704.72;;;15.39;81.76
74268;BME280;62638;51.362;12.472;2022-09-13T06:10:59;99697.47;;;15.39;82.39
74268;BME280;62638;51.362;12.472;2022-09-13T06:13:25;99690.41;;;15.53;81.95
74268;BME280;62638;51.362;12.472;2022-09-13T06:15:51;99691.59;;;15.51;81.01
74268;BME280;62638;51.362;12.472;2022-09-13T06:18:16;99697.25;;;15.56;80.30
74268;BME280;62638;51.362;12.472;2022-09-13T06:20:42;99693.44;;;15.50;81.20
74268;BME280;62638;51.362;12.472;2022-09-13T06:23:07;99701.53;;;15.50;81.47
74268;BME280;62638;51.362;12.472;2022-09-13T06:25:32;99705.09;;;15.51;81.39
74268;BME280;62638;51.362;12.472;2022-09-13T06:27:58;99709.91;;;15.55;81.35
74268;BME280;62638;51.362;12.472;2022-09-13T06:30:23;99702.66;;;15.56;81.79
74268;BME280;62638;51.362;12.472;2022-09-13T06:32:48;99710.19;;;15.45;82.74
74268;BME280;62638;51.362;12.472;2022-09-13T06:35:13;99712.69;;;15.32;84.37
74268;BME280;62638;51.362;12.472;2022-09-13T06:37:39;99717.63;;;15.29;84.41
74268;BME280;62638;51.362;12.472;2022-09-13T06:40:05;99716.81;;;14.99;87.35
74268;BME280;62638;51.362;12.472;2022-09-13T06:42:33;99723.13;;;14.91;86.72
74268;BME280;62638;51.362;12.472;2022-09-13T06:44:58;99714.75;;;14.86;87.93
74268;BME280;62638;51.362;12.472;2022-09-13T06:47:24;99718.66;;;14.84;88.34
74268;BME280;62638;51.362;12.472;2022-09-13T06:49:50;99720.31;;;14.85;88.76
74268;BME280;62638;51.362;12.472;2022-09-13T06:52:15;99716.69;;;14.78;89.67
74268;BME280;62638;51.362;12.472;2022-09-13T06:54:40;99701.38;;;14.78;90.17
74268;BME280;62638;51.362;12.472;2022-09-13T06:57:05;99702.63;;;14.68;91.22
74268;BME280;62638;51.362;12.472;2022-09-13T06:59:30;99696.22;;;14.69;90.10
74268;BME280;62638;51.362;12.472;2022-09-13T07:01:56;99692.69;;;14.68;90.77
74268;BME280;62638;51.362;12.472;2022-09-13T07:04:21;99685.00;;;14.65;91.11
74268;BME280;62638;51.362;12.472;2022-09-13T07:06:48;99681.53;;;14.71;89.92
74268;BME280;62638;51.362;12.472;2022-09-13T07:09:19;99695.97;;;14.78;89.51
74268;BME280;62638;51.362;12.472;2022-09-13T07:11:47;99695.50;;;14.75;90.84
74268;BME280;62638;51.362;12.472;2022-09-13T07:14:20;99698.66;;;14.78;91.05
74268;BME280;62638;51.362;12.472;2022-09-13T07:16:47;99700.22;;;14.73;90.31
74268;BME280;62638;51.362;12.472;2022-09-13T07:19:17;99685.00;;;14.65;91.71
74268;BME280;62638;51.362;12.472;2022-09-13T07:21:44;99692.41;;;14.63;91.98
74268;BME280;62638;51.362;12.472;2022-09-13T07:24:09;99695.09;;;14.63;91.04
74268;BME280;62638;51.362;12.472;2022-09-13T07:26:35;99701.00;;;14.67;91.28
74268;BME280;62638;51.362;12.472;2022-09-13T07:29:04;99690.66;;;14.70;91.46
74268;BME280;62638;51.362;12.472;2022-09-13T07:31:37;99683.69;;;14.76;91.48
74268;BME280;62638;51.362;12.472;2022-09-13T07:34:05;99683.13;;;14.80;91.88
74268;BME280;62638;51.362;12.472;2022-09-13T07:36:33;99677.19;;;14.85;91.48
74268;BME280;62638;51.362;12.472;2022-09-13T07:38:58;99685.19;;;14.93;90.84
74268;BME280;62638;51.362;12.472;2022-09-13T07:41:25;99689.47;;;15.02;90.06
74268;BME280;62638;51.362;12.472;2022-09-13T07:43:51;99699.81;;;15.13;90.37
74268;BME280;62638;51.362;12.472;2022-09-13T07:46:26;99689.28;;;15.18;89.59
74268;BME280;62638;51.362;12.472;2022-09-13T07:48:54;99682.66;;;15.21;89.92
74268;BME280;62638;51.362;12.472;2022-09-13T07:51:30;99679.31;;;15.33;90.40
74268;BME280;62638;51.362;12.472;2022-09-13T07:54:01;99678.47;;;15.33;89.03
74268;BME280;62638;51.362;12.472;2022-09-13T07:56:29;99681.63;;;15.51;88.79
74268;BME280;62638;51.362;12.472;2022-09-13T07:59:00;99688.66;;;15.67;87.33
74268;BME280;62638;51.362;12.472;2022-09-13T08:01:36;99691.66;;;15.93;87.09
74268;BME280;62638;51.362;12.472;2022-09-13T08:04:07;99696.75;;;16.03;86.14
74268;BME280;62638;51.362;12.472;2022-09-13T08:06:34;99698.34;;;15.97;86.29
74268;BME280;62638;51.362;12.472;2022-09-13T08:09:00;99695.91;;;16.02;86.30
74268;BME280;62638;51.362;12.472;2022-09-13T08:11:37;99698.88;;;16.07;85.86
74268;BME280;62638;51.362;12.472;2022-09-13T08:14:04;99688.78;;;16.16;85.09
74268;BME280;62638;51.362;12.472;2022-09-13T08:16:30;99699.25;;;16.25;84.53
74268;BME280;62638;51.362;12.472;2022-09-13T08:18:58;99699.03;;;16.27;84.95
74268;BME280;62638;51.362;12.472;2022-09-13T08:21:24;99704.13;;;16.37;84.87
74268;BME280;62638;51.362;12.472;2022-09-13T08:23:54;99705.75;;;16.52;85.13
74268;BME280;62638;51.362;12.472;2022-09-13T08:26:20;99705.13;;;16.78;84.47
74268;BME280;62638;51.362;12.472;2022-09-13T08:28:46;99719.59;;;16.64;83.11
74268;BME280;62638;51.362;12.472;2022-09-13T08:31:14;99706.94;;;16.71;84.66
74268;BME280;62638;51.362;12.472;2022-09-13T08:33:44;99706.00;;;16.85;83.57
74268;BME280;62638;51.362;12.472;2022-09-13T08:36:10;99697.75;;;16.93;83.21
74268;BME280;62638;51.362;12.472;2022-09-13T08:38:35;99708.22;;;17.09;81.63
74268;BME280;62638;51.362;12.472;2022-09-13T08:44:02;99695.06;;;17.34;81.96
74268;BME280;62638;51.362;12.472;2022-09-13T08:46:40;99695.94;;;17.48;80.31
74268;BME280;62638;51.362;12.472;2022-09-13T08:49:18;99685.72;;;17.43;80.69
74268;BME280;62638;51.362;12.472;2022-09-13T08:51:47;99698.88;;;17.53;79.24
74268;BME280;62638;51.362;12.472;2022-09-13T08:54:15;99709.63;;;17.74;79.33
74268;BME280;62638;51.362;12.472;2022-09-13T09:02:25;99700.75;;;18.06;77.57
74268;BME280;62638;51.362;12.472;2022-09-13T09:05:02;99702.22;;;18.16;77.20
74268;BME280;62638;51.362;12.472;2022-09-13T09:07:33;99699.09;;;18.12;76.18
74268;BME280;62638;51.362;12.472;2022-09-13T09:10:28;99696.84;;;18.29;75.97
74268;BME280;62638;51.362;12.472;2022-09-13T09:12:52;99696.38;;;18.25;75.77
74268;BME280;62638;51.362;12.472;2022-09-13T09:15:42;99699.56;;;18.42;75.68
74268;BME280;62638;51.362;12.472;2022-09-13T09:18:34;99695.59;;;18.71;75.22
74268;BME280;62638;51.362;12.472;2022-09-13T09:21:01;99699.34;;;18.83;74.82
74268;BME280;62638;51.362;12.472;2022-09-13T09:23:37;99690.16;;;18.77;75.13
74268;BME280;62638;51.362;12.472;2022-09-13T09:26:23;99692.88;;;18.77;74.43
74268;BME280;62638;51.362;12.472;2022-09-13T09:29:07;99688.22;;;19.17;72.99
74268;BME280;62638;51.362;12.472;2022-09-13T09:34:42;99680.41;;;19.47;71.42
74268;BME280;62638;51.362;12.472;2022-09-13T09:37:21;99684.28;;;19.71;71.20
74268;BME280;62638;51.362;12.472;2022-09-13T09:39:48;99684.88;;;20.11;69.63
74268;BME280;62638;51.362;12.472;2022-09-13T09:42:18;99678.91;;;20.27;67.06
74268;BME280;62638;51.362;12.472;2022-09-13T09:44:48;99675.13;;;20.28;67.39
74268;BME280;62638;51.362;12.472;2022-09-13T09:47:18;99678.88;;;20.33;65.42
74268;BME280;62638;51.362;12.472;2022-09-13T09:49:45;99677.72;;;20.48;67.09
74268;BME280;62638;51.362;12.472;2022-09-13T09:52:37;99680.00;;;20.51;66.84
74268;BME280;62638;51.362;12.472;2022-09-13T09:55:17;99668.28;;;20.75;65.96
74268;BME280;62638;51.362;12.472;2022-09-13T09:57:51;99668.97;;;20.89;64.45
74268;BME280;62638;51.362;12.472;2022-09-13T10:00:17;99666.34;;;21.55;62.53
74268;BME280;62638;51.362;12.472;2022-09-13T10:02:43;99674.69;;;21.23;63.40
74268;BME280;62638;51.362;12.472;2022-09-13T10:05:10;99668.50;;;21.16;65.17
74268;BME280;62638;51.362;12.472;2022-09-13T10:07:39;99669.19;;;21.30;63.28
74268;BME280;62638;51.362;12.472;2022-09-13T10:10:18;99664.56;;;21.12;63.28
74268;BME280;62638;51.362;12.472;2022-09-13T10:12:53;99662.13;;;21.59;62.89
74268;BME280;62638;51.362;12.472;2022-09-13T10:15:22;99665.56;;;21.18;61.60
74268;BME280;62638;51.362;12.472;2022-09-13T10:18:13;99645.94;;;21.46;61.67
74268;BME280;62638;51.362;12.472;2022-09-13T10:20:39;99644.81;;;22.13;61.70
74268;BME280;62638;51.362;12.472;2022-09-13T10:25:38;99632.16;;;22.30;57.23
74268;BME280;62638;51.362;12.472;2022-09-13T10:28:10;99635.72;;;22.66;57.05
74268;BME280;62638;51.362;12.472;2022-09-13T10:30:41;99637.03;;;22.63;57.11
74268;BME280;62638;51.362;12.472;2022-09-13T10:33:22;99635.19;;;22.22;57.38
74268;BME280;62638;51.362;12.472;2022-09-13T10:35:52;99639.16;;;22.49;56.03
74268;BME280;62638;51.362;12.472;2022-09-13T10:38:29;99630.41;;;22.71;56.49
74268;BME280;62638;51.362;12.472;2022-09-13T10:40:56;99634.25;;;22.16;56.68
74268;BME280;62638;51.362;12.472;2022-09-13T10:43:23;99632.25;;;22.35;56.98
74268;BME280;62638;51.362;12.472;2022-09-13T10:45:51;99619.56;;;21.88;57.51
74268;BME280;62638;51.362;12.472;2022-09-13T10:48:18;99631.38;;;22.00;57.02
74268;BME280;62638;51.362;12.472;2022-09-13T10:51:06;99625.00;;;21.88;56.77
74268;BME280;62638;51.362;12.472;2022-09-13T10:53:40;99629.28;;;22.25;56.99
74268;BME280;62638;51.362;12.472;2022-09-13T10:56:19;99625.38;;;22.33;56.75
74268;BME280;62638;51.362;12.472;2022-09-13T10:58:45;99621.94;;;22.49;56.60
74268;BME280;62638;51.362;12.472;2022-09-13T11:02:13;99622.97;;;22.78;56.72
74268;BME280;62638;51.362;12.472;2022-09-13T11:04:38;99628.75;;;22.70;56.13
74268;BME280;62638;51.362;12.472;2022-09-13T11:07:30;99628.00;;;22.39;54.90
74268;BME280;62638;51.362;12.472;2022-09-13T11:10:00;99624.47;;;22.39;56.05
74268;BME280;62638;51.362;12.472;2022-09-13T11:12:52;99622.91;;;22.43;56.65
74268;BME280;62638;51.362;12.472;2022-09-13T11:20:46;99610.94;;;22.67;53.97
74268;BME280;62638;51.362;12.472;2022-09-13T11:26:11;99606.94;;;23.21;53.14
74268;BME280;62638;51.362;12.472;2022-09-13T11:34:33;99586.84;;;23.27;52.53
74268;BME280;62638;51.362;12.472;2022-09-13T11:37:13;99588.41;;;23.23;52.56
74268;BME280;62638;51.362;12.472;2022-09-13T11:40:06;99590.88;;;22.85;53.72
74268;BME280;62638;51.362;12.472;2022-09-13T11:43:00;99576.66;;;23.23;52.69
74268;BME280;62638;51.362;12.472;2022-09-13T11:45:37;99577.53;;;23.40;52.59
74268;BME280;62638;51.362;12.472;2022-09-13T11:50:58;99574.94;;;23.45;53.63
74268;BME280;62638;51.362;12.472;2022-09-13T11:56:29;99571.72;;;23.08;53.64
74268;BME280;62638;51.362;12.472;2022-09-13T11:59:07;99573.09;;;22.71;54.56
74268;BME280;62638;51.362;12.472;2022-09-13T12:01:44;99577.41;;;23.06;53.40
74268;BME280;62638;51.362;12.472;2022-09-13T12:04:16;99573.81;;;23.58;52.59
74268;BME280;62638;51.362;12.472;2022-09-13T12:06:47;99572.13;;;23.68;51.82
74268;BME280;62638;51.362;12.472;2022-09-13T12:09:19;99574.50;;;24.26;51.90
74268;BME280;62638;51.362;12.472;2022-09-13T12:11:51;99571.19;;;24.24;50.96
74268;BME280;62638;51.362;12.472;2022-09-13T12:14:21;99560.44;;;24.56;49.59
74268;BME280;62638;51.362;12.472;2022-09-13T12:16:54;99563.66;;;25.08;49.40
74268;BME280;62638;51.362;12.472;2022-09-13T12:19:43;99567.09;;;24.44;52.18
74268;BME280;62638;51.362;12.472;2022-09-13T12:22:10;99564.72;;;23.69;53.15
74268;BME280;62638;51.362;12.472;2022-09-13T12:24:47;99561.31;;;23.33;53.95
74268;BME280;62638;51.362;12.472;2022-09-13T12:27:28;99558.91;;;22.97;53.41
74268;BME280;62638;51.362;12.472;2022-09-13T12:30:06;99560.94;;;22.90;53.98
74268;BME280;62638;51.362;12.472;2022-09-13T12:32:37;99558.69;;;22.98;54.17
74268;BME280;62638;51.362;12.472;2022-09-13T12:35:25;99563.91;;;22.88;55.71
74268;BME280;62638;51.362;12.472;2022-09-13T12:38:16;99558.47;;;22.77;54.28
74268;BME280;62638;51.362;12.472;2022-09-13T12:44:25;99548.63;;;22.76;55.10
74268;BME280;62638;51.362;12.472;2022-09-13T12:49:14;99546.72;;;22.41;55.60
74268;BME280;62638;51.362;12.472;2022-09-13T12:57:28;99545.44;;;22.55;55.16
74268;BME280;62638;51.362;12.472;2022-09-13T13:02:39;99537.47;;;22.54;55.38
74268;BME280;62638;51.362;12.472;2022-09-13T13:07:57;99545.91;;;22.76;55.26
74268;BME280;62638;51.362;12.472;2022-09-13T13:10:33;99539.69;;;22.92;55.78
74268;BME280;62638;51.362;12.472;2022-09-13T13:13:20;99541.75;;;22.73;54.67
74268;BME280;62638;51.362;12.472;2022-09-13T13:18:30;99540.41;;;22.52;55.91
74268;BME280;62638;51.362;12.472;2022-09-13T13:26:03;99530.16;;;23.06;54.41
74268;BME280;62638;51.362;12.472;2022-09-13T13:33:51;99523.97;;;23.11;55.21
74268;BME280;62638;51.362;12.472;2022-09-13T13:36:21;99524.06;;;23.44;53.42
74268;BME280;62638;51.362;12.472;2022-09-13T13:38:49;99515.66;;;23.45;52.41
74268;BME280;62638;51.362;12.472;2022-09-13T13:46:47;99500.94;;;23.63;51.22
74268;BME280;62638;51.362;12.472;2022-09-13T13:57:35;99496.53;;;24.12;48.67
74268;BME280;62638;51.362;12.472;2022-09-13T14:00:23;99491.06;;;24.67;47.00
74268;BME280;62638;51.362;12.472;2022-09-13T14:10:35;99485.50;;;24.84;47.12
74268;BME280;62638;51.362;12.472;2022-09-13T14:13:17;99492.44;;;24.70;48.82
74268;BME280;62638;51.362;12.472;2022-09-13T14:16:16;99486.81;;;24.38;48.27
74268;BME280;62638;51.362;12.472;2022-09-13T14:21:19;99482.09;;;24.33;48.95
74268;BME280;62638;51.362;12.472;2022-09-13T14:23:45;99479.84;;;24.14;49.82
74268;BME280;62638;51.362;12.472;2022-09-13T14:26:10;99482.69;;;24.02;49.61
74268;BME280;62638;51.362;12.472;2022-09-13T14:28:36;99477.47;;;24.17;50.53
74268;BME280;62638;51.362;12.472;2022-09-13T14:31:02;99472.31;;;24.04;49.82
74268;BME280;62638;51.362;12.472;2022-09-13T14:33:31;99465.78;;;24.05;49.85
74268;BME280;62638;51.362;12.472;2022-09-13T14:36:02;99466.28;;;24.02;50.88
74268;BME280;62638;51.362;12.472;2022-09-13T14:38:30;99468.53;;;23.88;50.03
74268;BME280;62638;51.362;12.472;2022-09-13T14:41:30;99469.78;;;23.81;51.43
74268;BME280;62638;51.362;12.472;2022-09-13T14:44:13;99458.47;;;23.61;50.93
74268;BME280;62638;51.362;12.472;2022-09-13T14:46:42;99468.25;;;23.57;51.26
74268;BME280;62638;51.362;12.472;2022-09-13T14:49:14;99462.97;;;23.50;51.97
74268;BME280;62638;51.362;12.472;2022-09-13T14:51:54;99468.72;;;23.37;51.66
74268;BME280;62638;51.362;12.472;2022-09-13T14:54:43;99468.84;;;23.30;52.18
74268;BME280;62638;51.362;12.472;2022-09-13T14:57:25;99465.94;;;23.20;52.63
74268;BME280;62638;51.362;12.472;2022-09-13T14:59:55;99460.38;;;23.15;52.19
74268;BME280;62638;51.362;12.472;2022-09-13T15:02:25;99458.50;;;23.16;52.62
74268;BME280;62638;51.362;12.472;2022-09-13T15:04:54;99458.38;;;23.11;53.22
74268;BME280;62638;51.362;12.472;2022-09-13T15:07:22;99457.00;;;23.08;52.83